Terminal Aerodrome Forecast
Issued by NWS

Home | Current Version | Previous Version | Graphics & Text | Print | Product List | Glossary On
Versions: 1 2 3 4 5 6 7 8 9 10 11 12 13 14 15 16 17 18 19 20 21 22 23 24 25
000
FTUS43 KLOT 101505 AAA
TAFDPA
TAF AMD
KDPA 101505Z 1015/1112 20012KT P6SM FEW080 BKN120 BKN250
     FM102100 30010KT P6SM BKN050
     FM111100 21007KT P6SM SCT030 OVC040=

USA.gov is the U.S. government's official web portal to all federal, state and local government web resources and services.